Aeroporto :
LOGIN :

Iscrizione | Disclaimer

   EN    FR    IT 

 










Sommario :    VFR   VFR Marginale   IFR   IFR Intensivo   IFR Molto Intensivo
Visibilità : 
Base nubi : 
>= 8 km
>= 3000ft
5 / 8 km
1000 / 3000 ft
1500m / 5 km
500 / 1000 ft
800 / 1500m
200 / 500 ft
< 800m
< 200 ft
Simboli :   Temporali  Nebbia  Neve Forte  Precipitazioni Forti  Vento > 20 kt
SIGMETs :   Varie  Temporali  Ghiacco  Turbolenza  Onda orograficha  Ceneri Vulcaniche






- Altitudine del aeroporto : 1411 ft
- Codice IATA : ZHI


LSZG - Grenchen

ULTIMO METAR :
  • 120220Z AUTO 22002KT 9999 BKN010 BKN012 BKN014 02/02 Q1008

METARs OBSOLETI :
  • 120150Z AUTO 24004KT 9999 BKN012 BKN014 BKN016 02/02 Q1008
  • 120120Z AUTO 21005KT 9999 BKN012 SCT014 02/01 Q1008
  • 120050Z AUTO 24005KT 9999 BKN013 BKN015 BKN075 02/01 Q1008
  • 120020Z AUTO 22003KT 9999 BKN013 BKN015 BKN017 02/02 Q1008
  • 112350Z AUTO 23002KT 9999 BKN014 BKN016 BKN018 02/02 Q1009

Previsioni scadute.
ATIS : +41 32 396 96 33



MetMap, La meteo Aeronautica in un colpo d'occhio ! - Copyright ORBIFLY Dicembre 2007 - Disclaimer

ORBIFLY MET'MAP TEAM :

Programmazione e sviluppo : Alexandra Zaïnal
Concezione : Baudouin d'Aumeries
Aiuto per la programmazione : Marc-Olivier Méhu
Supporto tecnico e logistico : Manuel Goepfert
Aiuto per la traduzione : Arnaldo La Scala

Contatto : metmap@orbifly.com




FONTI E CREDITI :

   NOAA